Time;durP1;ratioP1;P1;durP2;ratioP2;P2;SDS_P1;SDS_P2;PMS_P1;PMS_P2;Temp;Humidity;BMP_temperature;BMP_pressure;BME280_temperature;BME280_humidity;BME280_pressure;Samples;Min_cycle;Max_cycle;Signal;HPM_P1;HPM_P2
2022/12/23 00:00:54;;;;;;;5.63;4.13;;;1.10;99.90;2.20;96340.00;;;;5046398;28;20455;-84
2022/12/23 00:03:43;;;;;;;4.87;4.23;;;1.50;99.90;2.20;96341.00;;;;5050387;28;20435;-84
2022/12/23 00:06:32;;;;;;;6.57;4.33;;;1.10;99.90;2.00;96339.00;;;;5050002;28;20485;-83
2022/12/23 00:09:22;;;;;;;7.80;4.03;;;1.10;99.90;2.00;96336.00;;;;5048326;28;20816;-84
2022/12/23 00:15:17;;;;;;;6.63;4.53;;;1.10;99.90;2.20;96333.00;;;;5052589;28;20427;-84
2022/12/23 00:18:06;;;;;;;6.80;4.20;;;1.10;99.90;2.20;96321.00;;;;5055504;28;20419;-83
2022/12/23 00:20:59;;;;;;;5.20;3.33;;;1.20;99.90;2.00;96336.00;;;;5048785;28;20440;-84
2022/12/23 00:23:51;;;;;;;5.03;3.93;;;1.60;99.90;2.00;96330.00;;;;5049626;28;20801;-83
2022/12/23 00:26:41;;;;;;;3.00;2.70;;;1.10;99.90;1.80;96311.00;;;;5052425;28;20463;-83
2022/12/23 00:29:30;;;;;;;4.50;4.07;;;1.00;99.90;1.70;96315.00;;;;5053881;28;20430;-83
2022/12/23 00:32:19;;;;;;;6.37;3.73;;;1.00;99.90;1.80;96316.00;;;;5049772;28;20450;-83
2022/12/23 00:35:08;;;;;;;4.30;2.80;;;1.60;99.90;1.70;96311.00;;;;5046007;28;20900;-84
2022/12/23 00:37:57;;;;;;;9.20;4.60;;;1.00;99.90;2.10;96317.00;;;;5059759;28;20788;-84
2022/12/23 00:43:59;;;;;;;6.87;4.17;;;1.10;99.90;2.30;96299.00;;;;5050314;28;20517;-84
2022/12/23 00:46:48;;;;;;;9.43;4.47;;;1.90;99.90;2.20;96302.00;;;;5037666;28;20982;-83
2022/12/23 00:49:41;;;;;;;4.93;3.17;;;1.80;99.90;2.10;96307.00;;;;5048896;28;20470;-84
2022/12/23 00:52:30;;;;;;;7.30;3.87;;;1.90;99.90;2.20;96306.00;;;;5055355;28;20458;-84
2022/12/23 00:55:19;;;;;;;6.40;3.97;;;1.80;99.90;1.90;96300.00;;;;5065621;28;20505;-84
2022/12/23 00:58:08;;;;;;;7.50;3.47;;;1.20;99.90;1.90;96301.00;;;;5049829;28;20861;-84
2022/12/23 01:07:11;;;;;;;6.50;4.40;;;1.20;99.90;2.10;96303.00;;;;5046027;28;20558;-85
2022/12/23 01:09:59;;;;;;;3.57;3.10;;;1.20;99.90;2.10;96306.00;;;;5055493;28;20510;-84
2022/12/23 01:12:48;;;;;;;4.27;3.80;;;1.80;99.90;2.30;96294.00;;;;5053356;28;20442;-84
2022/12/23 01:15:37;;;;;;;5.70;4.03;;;1.20;99.90;2.10;96292.00;;;;5052995;28;20427;-83
2022/12/23 01:18:27;;;;;;;4.27;3.83;;;1.50;99.90;2.50;96294.00;;;;5065526;28;20438;-84
2022/12/23 01:21:16;;;;;;;5.00;4.50;;;1.40;99.90;2.60;96281.00;;;;5053083;28;20483;-83
2022/12/23 01:24:05;;;;;;;4.70;3.97;;;1.50;99.90;2.50;96269.00;;;;5060405;28;20951;-83
2022/12/23 01:26:54;;;;;;;3.87;3.40;;;1.40;99.90;2.20;96272.00;;;;5050265;28;20435;-83
2022/12/23 01:29:42;;;;;;;4.23;2.97;;;1.30;99.90;1.80;96275.00;;;;5053100;28;20862;-84
2022/12/23 01:32:31;;;;;;;4.10;3.57;;;1.30;99.90;2.20;96268.00;;;;5062439;28;20430;-84
2022/12/23 01:35:21;;;;;;;5.07;4.57;;;1.30;99.90;2.40;96278.00;;;;5057756;28;20477;-84
2022/12/23 01:38:10;;;;;;;4.80;4.13;;;1.60;99.90;2.10;96264.00;;;;5040236;28;20423;-84
2022/12/23 01:40:59;;;;;;;4.47;3.27;;;1.30;99.90;2.00;96277.00;;;;5064106;28;20463;-84
2022/12/23 01:43:49;;;;;;;7.30;4.23;;;2.00;99.90;1.90;96261.00;;;;5051755;28;20423;-84
2022/12/23 01:46:38;;;;;;;5.50;3.53;;;1.70;99.90;2.20;96260.00;;;;5053269;28;20807;-84
2022/12/23 01:49:26;;;;;;;4.90;4.40;;;3.00;99.90;2.10;96254.00;;;;5045548;28;20502;-84
2022/12/23 01:52:17;;;;;;;4.30;3.53;;;3.90;99.90;2.30;96267.00;;;;5055239;28;20516;-85
2022/12/23 01:55:07;;;;;;;4.03;3.53;;;1.50;99.90;2.30;96255.00;;;;5053037;28;20419;-84
2022/12/23 01:58:04;;;;;;;6.97;4.60;;;1.30;99.90;2.20;96248.00;;;;5057054;28;20553;-83
2022/12/23 02:04:06;;;;;;;5.73;4.50;;;1.30;99.90;2.50;96251.00;;;;5055238;28;20925;-84
2022/12/23 02:10:04;;;;;;;6.23;4.13;;;1.30;99.90;2.30;96240.00;;;;5051140;28;20953;-84
2022/12/23 02:12:57;;;;;;;6.20;4.47;;;2.00;99.90;2.30;96236.00;;;;5041353;28;20833;-83
2022/12/23 02:19:11;;;;;;;8.70;5.67;;;1.30;99.90;2.10;96245.00;;;;5051388;28;20428;-83
2022/12/23 02:22:23;;;;;;;6.67;4.63;;;1.20;99.90;2.10;96231.00;;;;5050535;28;20450;-83
2022/12/23 02:25:54;;;;;;;4.07;3.20;;;1.20;99.90;2.20;96232.00;;;;5049226;28;20525;-83
2022/12/23 02:29:20;;;;;;;5.83;4.60;;;1.30;99.90;2.20;96230.00;;;;5041525;28;20989;-84
2022/12/23 02:32:15;;;;;;;4.07;3.67;;;1.30;99.90;2.10;96223.00;;;;5044579;28;20463;-83
2022/12/23 02:35:12;;;;;;;5.43;4.67;;;1.30;99.90;2.20;96228.00;;;;5045325;28;20443;-83
2022/12/23 02:38:10;;;;;;;4.13;3.73;;;1.30;99.90;2.10;96215.00;;;;5046458;28;20477;-83
2022/12/23 02:41:09;;;;;;;5.83;4.43;;;1.30;99.90;2.40;96200.00;;;;5051862;28;20990;-83
2022/12/23 02:44:02;;;;;;;4.63;3.53;;;1.40;99.90;2.40;96202.00;;;;5062795;28;20443;-84
2022/12/23 02:46:59;;;;;;;4.30;3.37;;;1.50;99.90;2.40;96208.00;;;;5045861;28;21012;-84
2022/12/23 02:49:53;;;;;;;3.13;2.33;;;1.50;99.90;2.10;96214.00;;;;5049581;28;20434;-84
2022/12/23 02:52:46;;;;;;;3.63;3.27;;;1.40;99.90;2.00;96219.00;;;;5049465;28;20862;-84
2022/12/23 02:55:39;;;;;;;3.07;2.43;;;1.40;99.90;2.10;96218.00;;;;5045670;28;20497;-84
2022/12/23 02:58:34;;;;;;;4.17;3.50;;;1.40;99.90;2.40;96216.00;;;;5042409;28;20444;-85
2022/12/23 03:01:25;;;;;;;4.00;3.20;;;2.90;99.90;2.50;96218.00;;;;5048003;28;20980;-84
2022/12/23 03:04:15;;;;;;;6.07;5.17;;;1.50;99.90;2.60;96211.00;;;;5047897;28;21264;-83
2022/12/23 03:07:05;;;;;;;5.03;4.13;;;1.50;99.90;2.80;96200.00;;;;5050794;28;20423;-84
2022/12/23 03:10:04;;;;;;;5.90;4.40;;;4.00;99.90;2.70;96186.00;;;;5062089;28;20424;-83
2022/12/23 03:13:03;;;;;;;5.00;3.67;;;1.50;99.90;2.60;96195.00;;;;5063872;28;20472;-83
2022/12/23 03:16:04;;;;;;;4.57;3.77;;;1.60;99.90;2.90;96195.00;;;;5042883;28;20420;-84
2022/12/23 03:19:10;;;;;;;4.87;3.63;;;1.60;99.90;2.70;96189.00;;;;5048671;28;20440;-83
2022/12/23 03:22:12;;;;;;;6.17;4.93;;;1.60;99.90;2.80;96187.00;;;;5048026;28;20501;-83
2022/12/23 03:25:08;;;;;;;6.73;5.07;;;1.60;99.90;2.70;96165.00;;;;5045245;28;20446;-83
2022/12/23 03:28:06;;;;;;;4.40;4.00;;;1.70;99.90;2.70;96164.00;;;;5060435;28;20455;-83
2022/12/23 03:30:58;;;;;;;8.27;3.90;;;1.70;99.90;2.30;96189.00;;;;5047857;28;20464;-83
2022/12/23 03:33:54;;;;;;;3.50;3.23;;;2.30;99.90;2.30;96190.00;;;;5047389;28;20524;-84
2022/12/23 03:36:48;;;;;;;5.13;4.23;;;1.60;99.90;2.70;96198.00;;;;5040687;28;20439;-84
2022/12/23 03:39:45;;;;;;;5.67;4.07;;;1.70;99.90;2.90;96191.00;;;;5050132;28;20486;-84
2022/12/23 03:42:38;;;;;;;6.00;4.80;;;1.70;99.90;2.80;96198.00;;;;5048897;28;20431;-84
2022/12/23 03:45:33;;;;;;;6.10;4.03;;;1.90;99.90;2.50;96194.00;;;;5049992;28;20844;-84
2022/12/23 03:48:31;;;;;;;6.57;4.30;;;1.70;99.90;2.60;96190.00;;;;5048590;28;20986;-84
2022/12/23 03:51:24;;;;;;;7.50;5.73;;;1.60;99.90;2.70;96185.00;;;;5059366;28;20459;-84
2022/12/23 03:54:19;;;;;;;4.77;4.27;;;1.90;99.90;2.70;96176.00;;;;5048260;28;20436;-84
2022/12/23 03:57:11;;;;;;;4.33;2.77;;;1.80;99.90;2.60;96169.00;;;;5046872;28;20508;-84
2022/12/23 04:00:00;;;;;;;8.53;6.13;;;1.90;99.90;2.70;96172.00;;;;5045228;28;20431;-85
2022/12/23 04:03:01;;;;;;;8.73;6.03;;;2.00;99.90;3.20;96170.00;;;;5045799;28;20438;-85
2022/12/23 04:05:56;;;;;;;9.50;4.73;;;2.40;99.90;3.10;96162.00;;;;5048575;28;20942;-85
2022/12/23 04:08:46;;;;;;;4.80;3.73;;;2.00;99.90;2.60;96158.00;;;;5036012;28;20520;-84
2022/12/23 04:11:36;;;;;;;7.33;5.03;;;4.00;99.90;2.60;96153.00;;;;5048969;28;20467;-84
2022/12/23 04:14:27;;;;;;;4.67;4.13;;;2.60;99.90;2.50;96131.00;;;;5049427;28;20934;-84
2022/12/23 04:17:16;;;;;;;5.20;4.47;;;1.80;99.90;2.60;96147.00;;;;5050566;28;20419;-84
2022/12/23 04:20:07;;;;;;;4.80;4.30;;;1.70;99.90;2.30;96143.00;;;;5049223;28;20945;-84
2022/12/23 04:22:56;;;;;;;5.13;4.33;;;1.70;99.90;2.80;96129.00;;;;5049662;28;20431;-83
2022/12/23 04:25:45;;;;;;;5.23;4.73;;;1.80;99.90;2.80;96129.00;;;;5048873;28;20479;-84
2022/12/23 04:28:34;;;;;;;4.53;2.83;;;1.80;99.90;2.50;96140.00;;;;5044462;28;20490;-83
2022/12/23 04:31:24;;;;;;;5.43;4.50;;;2.40;99.90;2.80;96115.00;;;;5048188;28;20489;-83
2022/12/23 04:34:12;;;;;;;8.17;5.07;;;2.70;99.90;3.20;96118.00;;;;5051831;28;20433;-85
2022/12/23 04:37:01;;;;;;;6.40;5.13;;;1.80;99.90;3.10;96129.00;;;;5048168;28;20450;-84
2022/12/23 04:39:51;;;;;;;4.67;3.97;;;4.10;99.90;3.00;96129.00;;;;5048780;28;20517;-84
2022/12/23 04:42:40;;;;;;;4.90;3.37;;;2.30;99.90;2.50;96143.00;;;;5053709;28;20430;-84
2022/12/23 04:45:29;;;;;;;6.17;4.13;;;2.00;99.90;2.70;96147.00;;;;5062276;28;20426;-84
2022/12/23 04:48:20;;;;;;;9.13;5.33;;;1.80;99.90;3.10;96167.00;;;;5048214;28;20423;-84
2022/12/23 04:51:08;;;;;;;6.53;5.00;;;3.60;99.90;3.00;96160.00;;;;5057539;28;20453;-85
2022/12/23 04:53:57;;;;;;;7.93;4.73;;;1.90;99.90;2.90;96167.00;;;;5061256;28;20451;-83
2022/12/23 04:56:46;;;;;;;6.37;4.90;;;1.90;99.90;3.20;96179.00;;;;5050448;28;20989;-84
2022/12/23 04:59:35;;;;;;;10.27;5.30;;;1.90;99.90;3.40;96174.00;;;;5048614;28;20451;-84
2022/12/23 05:02:24;;;;;;;9.63;5.90;;;3.90;99.90;3.40;96183.00;;;;5045143;28;20443;-84
2022/12/23 05:05:14;;;;;;;6.80;5.60;;;2.00;99.90;3.40;96177.00;;;;5051569;28;20431;-84
2022/12/23 05:08:06;;;;;;;6.13;4.77;;;2.20;99.90;3.30;96185.00;;;;5050101;28;20946;-84
2022/12/23 05:10:55;;;;;;;6.53;5.20;;;2.20;99.90;3.30;96167.00;;;;5049243;28;20443;-84
2022/12/23 05:13:44;;;;;;;5.80;5.20;;;2.40;99.90;3.40;96165.00;;;;5048707;28;20443;-83
2022/12/23 05:16:33;;;;;;;5.23;4.50;;;2.30;99.90;3.00;96165.00;;;;5044979;28;20467;-84
2022/12/23 05:19:22;;;;;;;6.43;5.50;;;2.30;99.90;3.20;96180.00;;;;5043134;28;20813;-84
2022/12/23 05:22:12;;;;;;;4.97;3.83;;;2.30;99.90;2.50;96160.00;;;;5038768;28;20459;-84
2022/12/23 05:25:01;;;;;;;7.63;4.57;;;2.20;99.90;2.40;96156.00;;;;5041687;28;20779;-83
2022/12/23 05:27:50;;;;;;;5.43;4.90;;;2.00;99.90;2.80;96163.00;;;;5062195;28;20435;-84
2022/12/23 05:30:38;;;;;;;6.60;5.37;;;2.00;99.90;3.30;96173.00;;;;5047219;28;20482;-84
2022/12/23 05:33:27;;;;;;;7.73;4.47;;;2.10;99.90;3.10;96166.00;;;;5040253;28;20809;-84
2022/12/23 05:36:16;;;;;;;3.87;3.47;;;2.30;99.90;2.70;96159.00;;;;5048283;28;20439;-83
2022/12/23 05:39:06;;;;;;;7.43;5.10;;;2.10;99.90;2.90;96154.00;;;;5041316;28;20942;-84
2022/12/23 05:41:55;;;;;;;7.73;5.37;;;2.80;99.90;3.10;96151.00;;;;5048461;28;20456;-82
2022/12/23 05:44:44;;;;;;;5.53;4.97;;;2.10;99.90;3.20;96146.00;;;;5050847;28;20454;-84
2022/12/23 05:47:32;;;;;;;9.43;5.60;;;2.10;99.90;3.10;96140.00;;;;5044165;28;20431;-83
2022/12/23 05:50:21;;;;;;;5.63;4.80;;;2.10;99.90;3.20;96149.00;;;;5041668;28;21042;-84
2022/12/23 05:53:10;;;;;;;5.67;5.17;;;2.20;99.90;2.90;96155.00;;;;5043691;28;20474;-83
2022/12/23 05:56:05;;;;;;;7.63;5.73;;;2.10;99.90;3.00;96149.00;;;;5047472;28;20442;-83
2022/12/23 05:58:54;;;;;;;6.93;5.13;;;2.10;99.90;3.30;96142.00;;;;5060321;28;20478;-84
2022/12/23 06:01:42;;;;;;;8.30;6.07;;;2.10;99.90;3.30;96144.00;;;;5048164;28;20931;-83
2022/12/23 06:04:31;;;;;;;7.23;5.17;;;2.20;99.90;3.20;96143.00;;;;5047625;28;20431;-84
2022/12/23 06:07:20;;;;;;;6.10;4.30;;;2.30;99.90;2.60;96140.00;;;;5049441;28;20454;-83
2022/12/23 06:10:10;;;;;;;6.23;5.13;;;2.10;99.90;2.60;96130.00;;;;5049177;28;20865;-83
2022/12/23 06:13:00;;;;;;;10.37;5.13;;;1.90;99.90;2.80;96117.00;;;;5051130;28;20466;-83
2022/12/23 06:15:49;;;;;;;7.23;5.30;;;1.90;99.90;2.70;96120.00;;;;5047837;28;20455;-83
2022/12/23 06:18:38;;;;;;;6.77;4.53;;;1.90;99.90;2.30;96120.00;;;;5064569;28;20484;-84
2022/12/23 06:21:27;;;;;;;8.53;6.10;;;1.70;99.90;2.80;96111.00;;;;5051659;28;20470;-84
2022/12/23 06:24:15;;;;;;;5.30;4.13;;;1.80;99.90;2.50;96120.00;;;;5059391;28;20432;-83
2022/12/23 06:27:04;;;;;;;8.07;5.07;;;1.80;99.90;2.50;96132.00;;;;5049140;28;20432;-84
2022/12/23 06:29:54;;;;;;;5.40;4.47;;;1.70;99.90;2.60;96134.00;;;;5041759;28;20495;-84
2022/12/23 06:32:43;;;;;;;6.47;5.20;;;1.70;99.90;2.50;96132.00;;;;5057514;28;20448;-83
2022/12/23 06:35:32;;;;;;;7.13;5.73;;;1.60;99.90;2.50;96128.00;;;;5057139;28;20436;-83
2022/12/23 06:38:21;;;;;;;8.30;6.20;;;2.90;99.90;2.80;96120.00;;;;5036613;28;20431;-83
2022/12/23 06:41:10;;;;;;;7.17;5.50;;;1.60;99.90;2.80;96124.00;;;;5061536;28;20466;-83
2022/12/23 06:43:58;;;;;;;7.70;6.03;;;2.30;99.90;2.80;96119.00;;;;5063630;28;20438;-83
2022/12/23 06:46:48;;;;;;;6.20;4.63;;;1.70;99.90;1.90;96140.00;;;;5051555;28;20431;-83
2022/12/23 06:49:37;;;;;;;6.10;4.67;;;2.10;99.90;2.50;96171.00;;;;5051879;28;20474;-84
2022/12/23 06:52:26;;;;;;;9.53;6.13;;;1.70;99.90;2.50;96175.00;;;;5053181;28;20466;-83
2022/12/23 06:55:15;;;;;;;6.77;5.33;;;1.60;99.90;2.60;96187.00;;;;5064091;28;21309;-83
2022/12/23 06:58:04;;;;;;;7.20;5.80;;;1.50;99.90;2.60;96193.00;;;;5057724;28;20423;-84
2022/12/23 07:00:53;;;;;;;7.13;4.50;;;1.60;99.90;2.50;96192.00;;;;5042655;28;20451;-84
2022/12/23 07:03:43;;;;;;;9.13;5.60;;;1.50;99.90;2.70;96175.00;;;;5051079;28;20424;-84
2022/12/23 07:06:32;;;;;;;5.63;5.07;;;2.00;99.90;2.40;96175.00;;;;5051523;28;20427;-84
2022/12/23 07:09:21;;;;;;;5.23;4.67;;;1.60;99.90;2.20;96161.00;;;;5057765;28;20426;-83
2022/12/23 07:12:10;;;;;;;4.87;4.20;;;1.50;99.90;2.20;96165.00;;;;5052928;28;21182;-83
2022/12/23 07:14:58;;;;;;;6.73;5.00;;;3.20;99.90;2.10;96179.00;;;;5050608;28;20473;-83
2022/12/23 07:17:47;;;;;;;8.47;6.53;;;1.50;99.90;2.60;96178.00;;;;5050446;28;20420;-84
2022/12/23 07:20:37;;;;;;;8.87;5.97;;;1.60;99.90;2.70;96169.00;;;;5050631;28;20458;-83
2022/12/23 07:23:26;;;;;;;6.63;5.60;;;1.70;99.90;2.80;96168.00;;;;5043566;28;20419;-84
2022/12/23 07:26:15;;;;;;;7.23;5.50;;;1.60;99.90;2.80;96163.00;;;;5053671;28;20466;-83
2022/12/23 07:29:04;;;;;;;4.73;4.30;;;1.60;99.90;2.10;96150.00;;;;5055721;28;20442;-83
2022/12/23 07:31:53;;;;;;;5.77;4.50;;;1.90;99.90;1.90;96162.00;;;;5041069;28;21128;-84
2022/12/23 07:34:41;;;;;;;10.90;8.43;;;1.40;99.90;2.10;96173.00;;;;5053905;28;20435;-83
2022/12/23 07:37:31;;;;;;;14.97;8.87;;;2.40;99.90;2.00;96191.00;;;;5048570;28;20816;-84
2022/12/23 07:40:20;;;;;;;9.53;6.97;;;2.80;99.90;2.30;96187.00;;;;5051404;28;20936;-83
2022/12/23 07:43:10;;;;;;;7.27;5.63;;;1.70;99.90;2.30;96185.00;;;;5049923;28;20435;-84
2022/12/23 07:45:59;;;;;;;7.93;5.67;;;1.50;99.90;2.10;96195.00;;;;5050150;28;20423;-83
2022/12/23 07:48:48;;;;;;;12.37;5.60;;;1.40;99.90;2.60;96182.00;;;;5054861;28;20427;-83
2022/12/23 07:51:37;;;;;;;6.47;5.63;;;1.70;99.90;2.70;96183.00;;;;5062077;28;20455;-85
2022/12/23 07:54:27;;;;;;;10.97;7.20;;;1.60;99.90;2.30;96180.00;;;;5058247;28;20475;-83
2022/12/23 07:57:16;;;;;;;7.77;5.73;;;1.60;99.90;2.30;96172.00;;;;5055872;28;20514;-83
2022/12/23 08:00:07;;;;;;;12.13;7.57;;;3.70;99.90;2.70;96183.00;;;;5050097;28;20466;-84
2022/12/23 08:02:55;;;;;;;13.10;6.80;;;1.60;99.90;2.60;96171.00;;;;5049057;28;21231;-83
2022/12/23 08:05:44;;;;;;;10.43;5.13;;;1.60;99.90;2.40;96164.00;;;;5050162;28;20438;-84
2022/12/23 08:08:34;;;;;;;6.57;5.30;;;1.60;99.90;2.10;96170.00;;;;5059199;28;20423;-83
2022/12/23 08:11:24;;;;;;;9.13;5.40;;;1.60;99.90;2.20;96167.00;;;;5054691;28;20517;-83
2022/12/23 08:14:12;;;;;;;4.70;3.13;;;1.60;99.90;1.90;96175.00;;;;5059278;28;20434;-84
2022/12/23 08:17:01;;;;;;;3.90;3.10;;;1.70;99.90;1.80;96147.00;;;;5037414;28;20451;-84
2022/12/23 08:19:50;;;;;;;10.23;4.77;;;1.40;99.90;2.20;96149.00;;;;5049744;28;20434;-85
2022/12/23 08:22:39;;;;;;;5.20;4.50;;;2.00;99.90;2.40;96166.00;;;;5062753;28;20812;-84
2022/12/23 08:25:27;;;;;;;2.37;2.17;;;1.40;99.90;2.00;96175.00;;;;5060448;28;20435;-82
2022/12/23 08:28:17;;;;;;;4.93;4.37;;;1.80;99.90;1.80;96192.00;;;;5050346;28;20427;-84
2022/12/23 08:31:10;;;;;;;4.67;3.43;;;2.00;99.90;2.30;96183.00;;;;5052065;28;20479;-84
2022/12/23 08:34:00;;;;;;;4.73;4.23;;;1.70;99.90;2.30;96185.00;;;;5048206;28;20431;-85
2022/12/23 08:36:49;;;;;;;4.47;4.07;;;1.70;99.90;2.70;96190.00;;;;5049794;28;20431;-85
2022/12/23 08:39:37;;;;;;;6.77;5.00;;;3.80;99.90;2.30;96206.00;;;;5047099;28;20515;-84
2022/12/23 08:42:26;;;;;;;6.93;6.00;;;3.70;99.90;2.70;96215.00;;;;5051772;28;20455;-83
2022/12/23 08:45:16;;;;;;;4.67;4.20;;;3.20;99.90;3.00;96206.00;;;;5042788;28;20525;-85
2022/12/23 08:48:05;;;;;;;5.10;3.77;;;1.80;99.90;3.10;96193.00;;;;5041136;28;20438;-83
2022/12/23 08:50:54;;;;;;;3.27;2.97;;;2.00;99.90;3.30;96201.00;;;;5054346;28;20611;-83
2022/12/23 08:53:44;;;;;;;4.07;3.63;;;2.20;99.90;3.80;96200.00;;;;5053282;28;20969;-85
2022/12/23 08:56:38;;;;;;;3.63;3.30;;;2.40;99.90;4.00;96196.00;;;;5046105;28;20482;-85
2022/12/23 08:59:27;;;;;;;3.17;2.83;;;2.70;99.90;3.10;96176.00;;;;5041566;28;20427;-83
2022/12/23 09:02:17;;;;;;;12.63;11.30;;;2.60;99.90;3.40;96182.00;;;;5043409;28;20460;-83
2022/12/23 09:05:06;;;;;;;14.03;9.67;;;2.60;99.90;3.90;96177.00;;;;5060920;28;20810;-84
2022/12/23 09:07:55;;;;;;;8.67;7.07;;;2.70;99.90;3.80;96172.00;;;;5048412;28;20427;-85
2022/12/23 09:10:45;;;;;;;7.83;5.63;;;2.80;99.90;3.60;96170.00;;;;5048959;28;21005;-84
2022/12/23 09:13:33;;;;;;;4.50;3.80;;;2.80;99.90;3.80;96177.00;;;;5057834;28;20426;-84
2022/12/23 09:16:23;;;;;;;5.73;4.67;;;2.80;99.90;3.60;96165.00;;;;5057296;28;20803;-84
2022/12/23 09:19:14;;;;;;;11.33;4.63;;;2.90;99.90;3.30;96160.00;;;;5067834;28;21059;-85
2022/12/23 09:22:02;;;;;;;6.10;5.00;;;3.50;99.90;3.80;96173.00;;;;5053037;28;20458;-85
2022/12/23 09:24:51;;;;;;;5.03;4.53;;;2.80;99.90;3.90;96165.00;;;;5053158;28;20428;-84
2022/12/23 09:27:40;;;;;;;2.50;2.30;;;2.90;99.90;3.40;96154.00;;;;5055515;28;20428;-84
2022/12/23 09:30:29;;;;;;;5.20;4.70;;;2.90;99.90;3.70;96148.00;;;;5053915;28;20466;-84
2022/12/23 09:33:18;;;;;;;7.73;4.43;;;3.10;99.90;4.30;96158.00;;;;5052074;28;20434;-84
2022/12/23 09:36:09;;;;;;;5.57;3.67;;;4.20;99.90;4.30;96141.00;;;;5051688;28;20415;-84
2022/12/23 09:38:58;;;;;;;4.50;4.10;;;3.20;99.90;4.40;96144.00;;;;5054422;28;20431;-84
2022/12/23 09:42:05;;;;;;;7.87;4.90;;;5.00;99.90;4.50;96134.00;;;;5052586;28;20829;-85
2022/12/23 09:45:12;;;;;;;6.50;5.53;;;3.70;99.90;4.90;96118.00;;;;5053017;28;20442;-84
2022/12/23 09:48:01;;;;;;;6.03;5.43;;;4.40;99.90;5.10;96119.00;;;;5054593;28;20435;-83
2022/12/23 09:50:50;;;;;;;11.07;5.73;;;3.90;99.90;5.30;96124.00;;;;5053473;28;20233;-85
2022/12/23 09:53:52;;;;;;;9.60;5.20;;;4.10;99.90;4.60;96123.00;;;;5052888;28;20667;-85
2022/12/23 09:56:51;;;;;;;7.40;4.97;;;4.10;99.90;4.50;96129.00;;;;5053891;28;20666;-84
2022/12/23 09:59:59;;;;;;;9.73;5.60;;;4.60;99.90;5.40;96137.00;;;;5051970;28;20424;-84
2022/12/23 10:03:05;;;;;;;7.97;4.83;;;4.10;99.90;5.80;96144.00;;;;5043359;28;20211;-83
2022/12/23 10:06:03;;;;;;;6.83;4.50;;;4.30;99.90;5.90;96125.00;;;;5051141;28;20204;-84
2022/12/23 10:08:58;;;;;;;7.27;5.57;;;4.50;99.90;6.10;96136.00;;;;5052128;28;20199;-84
2022/12/23 10:11:50;;;;;;;7.50;4.67;;;4.60;99.90;6.10;96141.00;;;;5052698;28;20252;-84
2022/12/23 10:14:42;;;;;;;5.33;4.93;;;4.90;99.90;6.30;96127.00;;;;5058163;28;20188;-85
2022/12/23 10:17:40;;;;;;;7.27;4.13;;;5.00;99.90;6.00;96145.00;;;;5051477;28;20302;-84
2022/12/23 10:20:39;;;;;;;7.47;5.30;;;5.00;99.90;6.20;96129.00;;;;5052106;28;20221;-84
2022/12/23 10:23:34;;;;;;;6.57;4.60;;;5.10;99.90;6.50;96147.00;;;;5052736;28;20208;-85
2022/12/23 10:26:29;;;;;;;6.10;5.50;;;5.60;99.90;7.00;96159.00;;;;5051495;28;20211;-84
2022/12/23 10:29:20;;;;;;;7.37;5.77;;;6.20;99.90;7.30;96155.00;;;;5051791;28;20690;-85
2022/12/23 10:32:24;;;;;;;8.47;5.13;;;6.80;99.90;7.20;96160.00;;;;5060423;28;20219;-85
2022/12/23 10:35:22;;;;;;;4.63;4.20;;;7.20;99.90;8.00;96171.00;;;;5053394;28;20222;-85
2022/12/23 10:38:34;;;;;;;10.03;5.23;;;7.50;99.90;8.50;96162.00;;;;5040954;28;20201;-84
2022/12/23 10:41:38;;;;;;;5.47;4.97;;;8.10;99.90;9.40;96163.00;;;;5038882;28;20255;-85
2022/12/23 10:45:14;;;;;;;37.00;29.80;;;8.80;99.90;9.20;96165.00;;;;5049967;28;20247;-85
2022/12/23 10:48:19;;;;;;;9.00;7.80;;;9.40;99.90;9.10;96166.00;;;;5051351;28;20267;-85
2022/12/23 10:51:16;;;;;;;5.53;4.57;;;9.60;99.90;8.90;96133.00;;;;5047087;28;20229;-84
2022/12/23 10:54:10;;;;;;;9.80;4.37;;;9.50;99.90;9.70;96142.00;;;;5060635;28;20212;-84
2022/12/23 10:57:00;;;;;;;5.93;4.13;;;9.70;99.90;9.90;96150.00;;;;5047701;28;20208;-84
2022/12/23 10:59:50;;;;;;;6.47;4.10;;;10.20;99.90;9.80;96140.00;;;;5048410;28;20308;-84
2022/12/23 11:02:49;;;;;;;4.50;3.87;;;10.50;99.90;10.30;96130.00;;;;5040732;28;20197;-85
2022/12/23 11:05:38;;;;;;;5.60;5.00;;;10.60;99.90;10.70;96132.00;;;;5049596;28;20212;-84
2022/12/23 11:08:30;;;;;;;6.67;3.83;;;10.80;99.90;10.50;96134.00;;;;5050348;28;20197;-84
2022/12/23 11:11:19;;;;;;;4.23;3.63;;;11.00;99.90;11.10;96132.00;;;;5056782;28;20233;-84
2022/12/23 11:14:31;;;;;;;5.37;4.97;;;11.20;99.90;11.70;96139.00;;;;5048603;28;20203;-84
2022/12/23 11:17:22;;;;;;;5.47;4.07;;;11.50;99.90;12.00;96138.00;;;;5034870;28;20223;-84
2022/12/23 11:20:16;;;;;;;4.43;4.00;;;11.80;99.90;12.40;96139.00;;;;5051141;28;20660;-84
2022/12/23 11:23:23;;;;;;;4.80;4.30;;;12.30;99.90;12.00;96124.00;;;;5048835;28;20249;-85
2022/12/23 11:26:17;;;;;;;5.30;3.73;;;12.40;99.90;11.20;96172.00;;;;5049455;28;20208;-84
2022/12/23 11:29:12;;;;;;;3.70;3.40;;;12.00;99.90;11.10;96133.00;;;;5048502;28;20676;-86
2022/12/23 11:32:02;;;;;;;5.80;4.17;;;11.50;99.90;11.70;96127.00;;;;5053177;28;20231;-85
2022/12/23 11:34:53;;;;;;;5.10;4.00;;;11.60;99.90;12.10;96119.00;;;;5048872;28;20208;-85
2022/12/23 11:37:43;;;;;;;6.63;5.10;;;11.90;99.90;12.60;96132.00;;;;5048749;28;20672;-85
2022/12/23 11:40:36;;;;;;;5.23;3.70;;;12.40;99.90;12.70;96124.00;;;;5048010;28;20225;-85
2022/12/23 11:43:27;;;;;;;5.07;3.40;;;12.70;99.90;13.40;96129.00;;;;5040078;28;20331;-84
2022/12/23 11:46:27;;;;;;;4.80;3.63;;;13.10;99.90;13.10;96127.00;;;;5041463;28;20216;-84
2022/12/23 11:49:19;;;;;;;6.30;3.73;;;13.40;99.90;12.90;96115.00;;;;5049133;28;20693;-84
2022/12/23 11:52:14;;;;;;;4.97;3.57;;;13.20;99.90;12.80;96123.00;;;;5042671;28;20268;-84
2022/12/23 11:55:05;;;;;;;5.53;2.80;;;12.90;99.90;12.70;96124.00;;;;5037511;28;20209;-85
2022/12/23 11:57:56;;;;;;;3.80;3.03;;;12.80;99.90;13.10;96131.00;;;;5041410;28;20215;-85
2022/12/23 12:00:54;;;;;;;7.80;3.43;;;12.80;99.90;12.70;96149.00;;;;5041957;28;20216;-84
2022/12/23 12:03:49;;;;;;;4.20;2.73;;;12.60;99.90;12.90;96135.00;;;;5042031;28;20225;-84
2022/12/23 12:06:44;;;;;;;4.30;3.30;;;12.40;99.90;13.40;96149.00;;;;5038827;28;20205;-85
2022/12/23 12:09:39;;;;;;;4.17;3.20;;;12.40;99.90;13.00;96155.00;;;;5034542;28;20197;-85
2022/12/23 12:12:29;;;;;;;6.83;4.07;;;12.30;99.90;13.40;96115.00;;;;5037432;28;20289;-84
2022/12/23 12:15:33;;;;;;;5.20;3.50;;;12.40;99.90;14.70;96115.00;;;;5036425;28;20201;-85
2022/12/23 12:18:22;;;;;;;4.90;3.47;;;12.80;99.90;15.70;96109.00;;;;5030696;28;20197;-85
2022/12/23 12:21:17;;;;;;;8.97;3.70;;;13.40;99.90;16.90;96114.00;;;;5038486;28;20262;-85
2022/12/23 12:24:15;;;;;;;3.60;3.30;;;14.10;99.90;17.90;96102.00;;;;5031784;28;20232;-86
2022/12/23 12:27:10;;;;;;;2.73;2.53;;;15.10;99.90;18.00;96118.00;;;;5030039;28;20213;-85
2022/12/23 12:30:18;;;;;;;3.90;2.83;;;16.00;99.90;18.80;96116.00;;;;5043687;28;20205;-85
2022/12/23 12:33:15;;;;;;;3.07;2.50;;;16.50;99.90;18.10;96109.00;;;;5035504;28;20213;-85
2022/12/23 12:36:18;;;;;;;4.67;3.57;;;17.00;99.90;18.10;96110.00;;;;5043054;28;20688;-85
2022/12/23 12:39:18;;;;;;;5.13;2.87;;;17.20;99.90;17.60;96119.00;;;;5048376;28;20262;-84
2022/12/23 12:42:19;;;;;;;4.53;2.93;;;17.30;99.90;17.30;96110.00;;;;5041261;28;20610;-85
2022/12/23 12:45:18;;;;;;;3.40;2.70;;;17.00;99.90;15.20;96113.00;;;;5037238;28;20216;-86
2022/12/23 12:48:34;;;;;;;4.57;2.80;;;16.10;99.50;14.50;96108.00;;;;5036394;28;20207;-85
2022/12/23 12:51:31;;;;;;;4.53;2.57;;;15.20;99.90;14.20;96106.00;;;;5042955;28;20228;-85
2022/12/23 12:54:27;;;;;;;2.73;2.53;;;14.50;99.90;13.70;96142.00;;;;5037828;28;20611;-85
2022/12/23 12:57:18;;;;;;;4.60;2.80;;;13.80;99.90;12.70;96114.00;;;;5048917;28;20196;-85
2022/12/23 13:00:16;;;;;;;2.77;2.47;;;13.10;99.90;14.40;96122.00;;;;5043540;28;20231;-85
2022/12/23 13:03:55;;;;;;;5.73;4.33;;;12.80;99.90;13.80;96126.00;;;;5018455;28;20592;-86
2022/12/23 13:06:54;;;;;;;3.70;3.30;;;13.40;99.90;14.90;96116.00;;;;5032924;28;20213;-85
2022/12/23 13:09:57;;;;;;;6.03;3.23;;;13.30;99.90;14.80;96112.00;;;;5034372;28;20193;-85
2022/12/23 13:12:54;;;;;;;3.30;2.80;;;13.50;99.90;14.90;96104.00;;;;5038035;28;20201;-86
2022/12/23 13:15:51;;;;;;;4.43;3.53;;;13.70;99.90;14.80;96107.00;;;;5040209;28;20217;-86
2022/12/23 13:18:50;;;;;;;3.83;2.50;;;13.80;99.90;15.40;96114.00;;;;5039914;28;20212;-86
2022/12/23 13:21:48;;;;;;;3.40;2.53;;;14.10;99.90;15.00;96104.00;;;;5031177;28;21035;-85
2022/12/23 13:24:52;;;;;;;3.13;2.43;;;14.10;99.90;14.80;96104.00;;;;5052351;28;20216;-85